Time;durP1;ratioP1;P1;durP2;ratioP2;P2;SDS_P1;SDS_P2;PMS_P1;PMS_P2;Temp;Humidity;BMP_temperature;BMP_pressure;BME280_temperature;BME280_humidity;BME280_pressure;Samples;Min_cycle;Max_cycle;Signal;HPM_P1;HPM_P2
2021/03/30 00:00:35;;;;;;;2.90;2.70;;;20.50;53.00;;;;;;4955240;29;20197;-85
2021/03/30 00:03:03;;;;;;;2.60;2.40;;;20.50;53.00;;;;;;4952437;28;20225;-83
2021/03/30 00:05:29;;;;;;;3.43;2.63;;;20.50;53.10;;;;;;4950656;29;20765;-84
2021/03/30 00:07:56;;;;;;;3.10;2.80;;;20.50;53.00;;;;;;4954495;29;20749;-85
2021/03/30 00:10:36;;;;;;;3.43;2.70;;;20.40;53.00;;;;;;4953072;29;20206;-84
2021/03/30 00:13:03;;;;;;;3.10;2.80;;;20.40;53.00;;;;;;4954627;28;20245;-84
2021/03/30 00:15:30;;;;;;;3.30;2.70;;;20.40;53.00;;;;;;4969767;28;20232;-84
2021/03/30 00:17:56;;;;;;;4.13;3.00;;;20.40;53.00;;;;;;4951433;29;20197;-83
2021/03/30 00:20:23;;;;;;;3.43;2.80;;;20.40;53.00;;;;;;4953812;28;20202;-83
2021/03/30 00:22:49;;;;;;;3.57;2.57;;;20.40;52.90;;;;;;4970439;28;20206;-84
2021/03/30 00:25:16;;;;;;;2.63;2.40;;;20.40;53.00;;;;;;4954610;29;20213;-84
2021/03/30 00:27:42;;;;;;;3.97;2.97;;;20.30;53.00;;;;;;4955251;29;20200;-83
2021/03/30 00:30:10;;;;;;;2.97;2.60;;;20.40;53.00;;;;;;4954288;28;20206;-84
2021/03/30 00:32:37;;;;;;;3.93;2.90;;;20.40;53.10;;;;;;4954804;29;20198;-84
2021/03/30 00:35:05;;;;;;;3.00;2.63;;;20.30;53.00;;;;;;4952016;28;20229;-84
2021/03/30 00:37:33;;;;;;;3.00;2.70;;;20.30;53.00;;;;;;4951390;28;20206;-84
2021/03/30 00:40:00;;;;;;;2.60;2.40;;;20.30;53.00;;;;;;4955432;29;20277;-84
2021/03/30 00:42:26;;;;;;;3.40;2.83;;;20.30;53.00;;;;;;4950190;28;20214;-83
2021/03/30 00:44:53;;;;;;;4.17;2.80;;;20.30;53.00;;;;;;4954301;28;20181;-82
2021/03/30 00:47:20;;;;;;;3.43;2.87;;;20.30;53.00;;;;;;4952888;29;20278;-81
2021/03/30 00:49:49;;;;;;;4.27;2.83;;;20.30;53.00;;;;;;4953788;28;20709;-85
2021/03/30 00:52:17;;;;;;;3.10;2.63;;;20.30;53.60;;;;;;4967498;28;20198;-82
2021/03/30 00:54:44;;;;;;;2.77;2.43;;;20.30;53.10;;;;;;4954336;28;20224;-83
2021/03/30 00:57:11;;;;;;;3.93;3.00;;;20.30;53.10;;;;;;4952082;29;20198;-83
2021/03/30 00:59:37;;;;;;;3.60;2.87;;;20.30;53.10;;;;;;4951505;29;20201;-83
2021/03/30 01:02:04;;;;;;;3.40;2.70;;;20.20;53.00;;;;;;4954759;28;20198;-83
2021/03/30 01:04:30;;;;;;;3.33;2.80;;;20.30;53.10;;;;;;4954523;29;20185;-84
2021/03/30 01:06:57;;;;;;;4.70;2.87;;;20.20;53.10;;;;;;4953712;29;20571;-83
2021/03/30 01:09:35;;;;;;;3.00;2.40;;;20.20;53.10;;;;;;4953205;28;20201;-82
2021/03/30 01:12:22;;;;;;;3.47;2.60;;;20.20;53.00;;;;;;4953498;29;20207;-83
2021/03/30 01:14:56;;;;;;;2.83;2.60;;;20.20;53.00;;;;;;4951683;28;20173;-83
2021/03/30 01:17:41;;;;;;;4.00;2.77;;;20.20;53.00;;;;;;4967375;28;20213;-83
2021/03/30 01:20:53;;;;;;;3.93;2.80;;;20.20;53.00;;;;;;4953698;28;20197;-83
2021/03/30 01:23:28;;;;;;;3.77;2.77;;;20.20;53.10;;;;;;4952678;29;20208;-84
2021/03/30 01:26:26;;;;;;;3.10;2.80;;;20.20;53.10;;;;;;4954989;28;20197;-83
2021/03/30 01:29:14;;;;;;;3.03;2.67;;;20.20;53.00;;;;;;4956476;28;20198;-83
2021/03/30 01:31:47;;;;;;;2.57;2.37;;;20.20;53.10;;;;;;4958733;28;20189;-83
2021/03/30 01:34:15;;;;;;;2.77;2.53;;;20.10;53.00;;;;;;4958255;28;20198;-84
2021/03/30 01:36:43;;;;;;;3.57;3.03;;;20.20;53.10;;;;;;4957590;28;20221;-82
2021/03/30 01:39:12;;;;;;;5.03;3.00;;;20.10;53.60;;;;;;4954528;28;20236;-83
2021/03/30 01:41:42;;;;;;;3.43;2.57;;;20.10;52.90;;;;;;4957618;28;20879;-84
2021/03/30 01:44:09;;;;;;;4.83;2.70;;;20.10;53.00;;;;;;4957704;28;20198;-84
2021/03/30 01:46:36;;;;;;;3.07;2.60;;;20.10;53.00;;;;;;4957219;29;20662;-84
2021/03/30 01:49:03;;;;;;;4.23;2.70;;;20.10;53.00;;;;;;4959522;28;20206;-84
2021/03/30 01:51:29;;;;;;;2.90;2.60;;;20.10;53.00;;;;;;4972309;28;20202;-84
2021/03/30 01:53:57;;;;;;;3.40;2.87;;;20.10;53.00;;;;;;4957264;29;20208;-84
2021/03/30 01:56:24;;;;;;;3.00;2.40;;;20.10;53.00;;;;;;4972316;28;20214;-85
2021/03/30 01:58:52;;;;;;;3.00;2.60;;;20.10;53.00;;;;;;4957202;29;20202;-84
2021/03/30 02:01:25;;;;;;;2.90;2.63;;;20.10;53.00;;;;;;4955675;29;20217;-85
2021/03/30 02:03:52;;;;;;;3.60;2.70;;;20.10;53.00;;;;;;4953842;28;20205;-85
2021/03/30 02:06:18;;;;;;;3.47;2.80;;;20.00;52.90;;;;;;4972453;28;20271;-85
2021/03/30 02:08:46;;;;;;;3.10;2.80;;;20.00;52.90;;;;;;4957343;28;20248;-85
2021/03/30 02:11:22;;;;;;;3.40;2.70;;;20.00;52.90;;;;;;4957479;28;20768;-84
2021/03/30 02:13:55;;;;;;;3.43;2.53;;;20.00;53.00;;;;;;4955296;28;20197;-85
2021/03/30 02:16:25;;;;;;;3.30;2.97;;;20.00;53.00;;;;;;4955105;28;20218;-84
2021/03/30 02:18:58;;;;;;;3.20;2.67;;;20.00;53.00;;;;;;4957127;29;20209;-85
2021/03/30 02:21:41;;;;;;;2.93;2.43;;;20.00;53.00;;;;;;4970411;28;20251;-85
2021/03/30 02:24:10;;;;;;;3.13;2.63;;;20.00;53.00;;;;;;4953345;28;20544;-85
2021/03/30 02:26:42;;;;;;;3.10;2.60;;;20.00;52.90;;;;;;4958273;28;20228;-85
2021/03/30 02:29:14;;;;;;;4.03;2.73;;;20.00;53.00;;;;;;4957748;28;20232;-85
2021/03/30 02:31:42;;;;;;;3.50;2.90;;;19.90;52.90;;;;;;4972671;28;20194;-85
2021/03/30 02:34:10;;;;;;;4.10;2.73;;;19.90;52.90;;;;;;4956239;28;20194;-85
2021/03/30 02:36:37;;;;;;;3.20;2.83;;;20.00;53.00;;;;;;4955914;29;20585;-84
2021/03/30 02:39:12;;;;;;;3.07;2.60;;;19.90;52.90;;;;;;4953795;28;20198;-84
2021/03/30 02:41:44;;;;;;;3.80;2.50;;;19.90;52.90;;;;;;4952712;28;20236;-84
2021/03/30 02:44:13;;;;;;;2.70;2.30;;;19.90;52.90;;;;;;4972171;28;20198;-84
2021/03/30 02:46:40;;;;;;;3.50;3.00;;;19.90;52.90;;;;;;4955173;28;20198;-84
2021/03/30 02:49:10;;;;;;;3.10;2.80;;;19.90;52.90;;;;;;4955203;29;20670;-84
2021/03/30 02:51:38;;;;;;;2.93;2.60;;;19.90;52.90;;;;;;4954547;28;20194;-84
2021/03/30 02:54:07;;;;;;;2.80;2.50;;;19.90;52.90;;;;;;4957102;29;20307;-84
2021/03/30 02:56:33;;;;;;;2.63;2.43;;;19.90;52.90;;;;;;4957149;29;20221;-84
2021/03/30 02:59:00;;;;;;;3.03;2.53;;;19.90;52.90;;;;;;4957726;29;20197;-84
2021/03/30 03:01:26;;;;;;;2.80;2.47;;;19.80;52.80;;;;;;4957287;28;20198;-83
2021/03/30 03:03:53;;;;;;;4.73;3.20;;;19.80;52.80;;;;;;4956660;29;20205;-82
2021/03/30 03:06:20;;;;;;;2.60;2.40;;;19.90;52.80;;;;;;4956094;28;20642;-84
2021/03/30 03:08:48;;;;;;;3.47;2.60;;;19.80;52.80;;;;;;4956925;28;20233;-84
2021/03/30 03:11:16;;;;;;;3.90;3.00;;;19.80;52.80;;;;;;4953906;29;20209;-84
2021/03/30 03:13:45;;;;;;;3.80;2.80;;;19.80;52.80;;;;;;4955931;28;20194;-84
2021/03/30 03:16:12;;;;;;;2.90;2.40;;;19.80;52.80;;;;;;4957283;28;20300;-83
2021/03/30 03:18:40;;;;;;;2.60;2.40;;;19.80;52.80;;;;;;4956398;29;20257;-84
2021/03/30 03:21:08;;;;;;;2.83;2.53;;;19.90;52.90;;;;;;4972511;28;20198;-84
2021/03/30 03:23:38;;;;;;;3.17;2.80;;;19.80;52.70;;;;;;4957095;28;20252;-84
2021/03/30 03:26:12;;;;;;;3.17;2.87;;;19.80;52.80;;;;;;4955947;28;20209;-83
2021/03/30 03:28:43;;;;;;;3.40;3.10;;;19.80;53.40;;;;;;4970184;28;20205;-82
2021/03/30 03:31:10;;;;;;;3.20;2.90;;;19.80;52.80;;;;;;4955169;28;20199;-83
2021/03/30 03:33:37;;;;;;;3.10;2.80;;;19.80;52.70;;;;;;4955671;28;20201;-83
2021/03/30 03:36:12;;;;;;;2.90;2.60;;;19.80;52.80;;;;;;4957502;29;20225;-83
2021/03/30 03:38:40;;;;;;;4.30;3.20;;;19.70;52.70;;;;;;4954274;28;20206;-83
2021/03/30 03:41:16;;;;;;;3.60;3.00;;;19.70;52.70;;;;;;4953043;29;20228;-83
2021/03/30 03:43:46;;;;;;;4.90;2.97;;;19.70;52.70;;;;;;4956578;28;20202;-83
2021/03/30 03:46:16;;;;;;;3.33;3.03;;;19.70;52.70;;;;;;4957024;28;20209;-83
2021/03/30 03:48:42;;;;;;;3.33;3.03;;;19.70;53.30;;;;;;4955157;29;20182;-83
2021/03/30 03:51:10;;;;;;;3.40;3.03;;;19.70;52.70;;;;;;4970449;28;20201;-83
2021/03/30 03:53:37;;;;;;;4.10;3.10;;;19.70;52.70;;;;;;4953613;29;20205;-84
2021/03/30 03:56:05;;;;;;;3.00;2.70;;;19.70;52.70;;;;;;4952504;28;20236;-83
2021/03/30 03:58:36;;;;;;;3.87;3.50;;;19.70;52.70;;;;;;4954689;28;20560;-83
2021/03/30 04:01:12;;;;;;;4.00;3.17;;;19.70;52.60;;;;;;4954702;28;20202;-83
2021/03/30 04:03:52;;;;;;;3.80;3.47;;;19.70;52.70;;;;;;4953004;28;20684;-84
2021/03/30 04:06:22;;;;;;;4.60;3.27;;;19.70;52.70;;;;;;4953541;28;20208;-83
2021/03/30 04:08:51;;;;;;;3.90;3.37;;;19.70;52.70;;;;;;4954435;28;20229;-84
2021/03/30 04:11:19;;;;;;;3.70;3.10;;;19.60;52.60;;;;;;4955521;28;20682;-81
2021/03/30 04:13:47;;;;;;;4.60;3.53;;;19.70;52.60;;;;;;4955941;28;20388;-84
2021/03/30 04:16:14;;;;;;;3.37;3.07;;;19.60;52.60;;;;;;4956531;28;20335;-83
2021/03/30 04:18:42;;;;;;;3.50;3.17;;;19.60;52.60;;;;;;4952527;28;20564;-84
2021/03/30 04:21:25;;;;;;;4.20;3.10;;;19.60;52.60;;;;;;4955661;28;20674;-83
2021/03/30 04:23:52;;;;;;;3.97;3.30;;;19.60;52.60;;;;;;4955658;28;20201;-83
2021/03/30 04:26:19;;;;;;;3.70;3.30;;;19.60;52.60;;;;;;4956092;28;20213;-83
2021/03/30 04:28:45;;;;;;;4.20;3.57;;;19.60;52.50;;;;;;4954447;28;20185;-83
2021/03/30 04:31:11;;;;;;;3.53;3.20;;;19.60;52.60;;;;;;4953918;28;20210;-82
2021/03/30 04:33:38;;;;;;;4.83;3.30;;;19.60;52.60;;;;;;4954657;29;20197;-82
2021/03/30 04:36:04;;;;;;;3.63;3.10;;;19.60;52.50;;;;;;4955551;28;20224;-83
2021/03/30 04:38:31;;;;;;;4.23;3.23;;;19.60;52.70;;;;;;4950707;28;20194;-82
2021/03/30 04:40:57;;;;;;;4.07;3.60;;;19.50;52.50;;;;;;4955251;28;20205;-82
2021/03/30 04:43:24;;;;;;;4.23;3.13;;;19.50;52.50;;;;;;4952383;28;20198;-83
2021/03/30 04:45:50;;;;;;;4.33;3.30;;;19.50;52.50;;;;;;4955493;29;20211;-83
2021/03/30 04:48:17;;;;;;;3.30;2.80;;;19.50;52.50;;;;;;4967792;28;20459;-83
2021/03/30 04:50:44;;;;;;;3.30;3.00;;;19.50;52.50;;;;;;4951579;29;20214;-83
2021/03/30 04:53:11;;;;;;;5.50;3.77;;;19.50;53.10;;;;;;4955095;29;20706;-83
2021/03/30 04:55:38;;;;;;;4.97;3.23;;;19.50;53.10;;;;;;4953506;29;20292;-83
2021/03/30 04:58:05;;;;;;;3.70;3.10;;;19.50;52.50;;;;;;4956213;29;20202;-83
2021/03/30 05:00:31;;;;;;;3.60;2.93;;;19.50;52.40;;;;;;4955190;28;20225;-80
2021/03/30 05:02:58;;;;;;;4.33;3.63;;;19.50;52.40;;;;;;4954504;28;20209;-80
2021/03/30 05:05:38;;;;;;;4.53;3.23;;;19.50;52.30;;;;;;4955379;28;20249;-79
2021/03/30 05:08:12;;;;;;;3.43;2.93;;;19.50;52.30;;;;;;4956072;29;20273;-79
2021/03/30 05:10:38;;;;;;;5.03;3.37;;;19.50;52.40;;;;;;4954530;28;20209;-81
2021/03/30 05:13:04;;;;;;;3.77;3.37;;;19.40;52.40;;;;;;4957138;29;20755;-81
2021/03/30 05:15:31;;;;;;;3.60;3.27;;;19.50;52.40;;;;;;4952504;28;20214;-81
2021/03/30 05:17:57;;;;;;;7.53;3.80;;;19.40;52.70;;;;;;4955144;28;20205;-81
2021/03/30 05:20:28;;;;;;;8.30;3.83;;;19.50;52.80;;;;;;4955266;29;20205;-81
2021/03/30 05:22:55;;;;;;;9.13;4.33;;;19.50;53.00;;;;;;4953896;29;20205;-82
2021/03/30 05:25:21;;;;;;;18.00;5.73;;;19.50;53.20;;;;;;4954635;28;20563;-82
2021/03/30 05:27:48;;;;;;;21.60;6.67;;;19.50;53.60;;;;;;4968622;28;20189;-79
2021/03/30 05:30:14;;;;;;;26.03;7.20;;;19.40;53.60;;;;;;4964330;28;20202;-78
2021/03/30 05:32:42;;;;;;;64.03;12.57;;;19.50;54.00;;;;;;4951242;29;20615;-81
2021/03/30 05:35:11;;;;;;;71.37;13.87;;;19.50;54.00;;;;;;4967391;28;20233;-80
2021/03/30 05:37:41;;;;;;;43.50;12.20;;;19.50;53.90;;;;;;4951199;29;20186;-81
2021/03/30 05:40:13;;;;;;;49.43;12.37;;;19.50;53.70;;;;;;4953481;28;20202;-83
2021/03/30 05:42:41;;;;;;;32.00;10.40;;;19.40;53.50;;;;;;4955178;28;20649;-81
2021/03/30 05:45:10;;;;;;;36.47;10.53;;;19.40;53.30;;;;;;4953627;28;20213;-82
2021/03/30 05:47:36;;;;;;;30.87;10.80;;;19.50;53.20;;;;;;4949947;28;20205;-82
2021/03/30 05:50:14;;;;;;;32.73;9.40;;;19.40;53.10;;;;;;4949433;28;20198;-82
2021/03/30 05:53:02;;;;;;;20.60;8.53;;;19.40;53.00;;;;;;4955768;28;20280;-82
2021/03/30 05:55:31;;;;;;;26.30;8.70;;;19.40;52.90;;;;;;4955594;28;20658;-81
2021/03/30 05:58:00;;;;;;;20.40;8.87;;;19.40;52.80;;;;;;4954777;28;20206;-86
2021/03/30 06:00:30;;;;;;;19.20;8.47;;;19.40;52.80;;;;;;4954235;28;20202;-81
2021/03/30 06:03:01;;;;;;;15.87;8.47;;;19.40;52.80;;;;;;4953134;28;20201;-80
2021/03/30 06:05:28;;;;;;;16.47;7.50;;;19.40;52.70;;;;;;4954225;28;20201;-80
2021/03/30 06:07:56;;;;;;;16.53;7.77;;;19.40;52.60;;;;;;4953199;28;20611;-80
2021/03/30 06:10:24;;;;;;;15.77;8.03;;;19.40;52.60;;;;;;4952059;28;20194;-80
2021/03/30 06:12:56;;;;;;;14.33;7.33;;;19.40;52.40;;;;;;4951174;28;20209;-80
2021/03/30 06:15:28;;;;;;;12.40;7.30;;;19.30;52.30;;;;;;4948032;28;20206;-79
2021/03/30 06:17:55;;;;;;;14.00;8.03;;;19.30;52.20;;;;;;4953035;28;20220;-86
2021/03/30 06:20:24;;;;;;;11.77;7.50;;;19.30;52.10;;;;;;4953295;28;20678;-80
2021/03/30 06:22:53;;;;;;;18.70;8.90;;;19.30;52.00;;;;;;4956843;28;20208;-80
2021/03/30 06:25:35;;;;;;;15.93;8.20;;;19.30;53.40;;;;;;4955421;28;20296;-79
2021/03/30 06:28:18;;;;;;;15.67;8.37;;;19.30;53.10;;;;;;4954989;28;20284;-79
2021/03/30 06:31:15;;;;;;;10.90;7.10;;;19.30;53.10;;;;;;4972377;28;20197;-79
2021/03/30 06:33:52;;;;;;;12.73;7.37;;;19.30;52.90;;;;;;4952956;28;20674;-83
2021/03/30 06:36:21;;;;;;;16.13;7.60;;;19.30;52.80;;;;;;4962200;28;20228;-83
2021/03/30 06:38:54;;;;;;;11.60;6.93;;;19.30;52.70;;;;;;4954813;28;20198;-83
2021/03/30 06:41:39;;;;;;;11.90;6.77;;;19.30;52.50;;;;;;4955629;28;20212;-80
2021/03/30 06:44:28;;;;;;;10.27;6.80;;;19.30;52.80;;;;;;4956923;28;20550;-80
2021/03/30 06:47:12;;;;;;;10.50;6.90;;;19.30;52.80;;;;;;4952689;28;20212;-81
2021/03/30 06:50:00;;;;;;;10.37;7.00;;;19.30;52.70;;;;;;4957449;28;20213;-81
2021/03/30 06:52:35;;;;;;;12.90;6.97;;;19.30;52.70;;;;;;4957486;28;20240;-82
2021/03/30 06:55:06;;;;;;;10.13;6.10;;;19.30;53.20;;;;;;4953937;28;20205;-81
2021/03/30 06:57:47;;;;;;;10.37;6.33;;;19.30;52.60;;;;;;4955450;28;20209;-82
2021/03/30 07:00:26;;;;;;;13.07;6.60;;;19.30;53.00;;;;;;4954019;28;20197;-81
2021/03/30 07:02:55;;;;;;;8.77;6.30;;;19.30;52.80;;;;;;4950171;28;20202;-84
2021/03/30 07:05:43;;;;;;;7.60;5.13;;;19.40;53.70;;;;;;4956267;28;20212;-86
2021/03/30 07:08:17;;;;;;;11.55;5.97;;;19.60;54.00;;;;;;4966962;28;20445;-88
2021/03/30 07:10:46;;;;;;;8.73;5.53;;;19.70;54.00;;;;;;4951613;28;20201;-86
2021/03/30 07:13:18;;;;;;;7.27;5.30;;;19.70;54.00;;;;;;4953824;28;20197;-86
2021/03/30 07:15:45;;;;;;;9.60;5.23;;;19.80;54.00;;;;;;4957331;28;20240;-81
2021/03/30 07:18:14;;;;;;;9.97;5.10;;;19.90;54.10;;;;;;4953524;28;20198;-88
2021/03/30 07:21:06;;;;;;;9.23;4.57;;;19.90;54.10;;;;;;4971262;28;20265;-86
2021/03/30 07:23:34;;;;;;;8.97;4.67;;;20.00;53.80;;;;;;4951758;28;20919;-85
2021/03/30 07:26:08;;;;;;;5.70;4.03;;;20.10;53.90;;;;;;4953842;28;20217;-90
2021/03/30 07:28:50;;;;;;;6.63;3.93;;;20.20;53.90;;;;;;4954605;28;20209;-89
2021/03/30 07:31:28;;;;;;;6.70;4.57;;;20.30;53.60;;;;;;4972029;28;20216;-85
2021/03/30 07:34:11;;;;;;;6.40;4.60;;;20.30;53.40;;;;;;4956613;28;20225;-88
2021/03/30 07:36:49;;;;;;;6.67;4.10;;;20.40;53.30;;;;;;4954022;28;20214;-87
2021/03/30 07:39:18;;;;;;;8.43;3.93;;;20.50;53.20;;;;;;4955373;28;20208;-87
2021/03/30 07:41:49;;;;;;;7.13;4.27;;;20.60;53.20;;;;;;4959580;28;20790;-89
2021/03/30 07:44:19;;;;;;;5.17;4.03;;;20.60;53.00;;;;;;4959531;28;20209;-87
2021/03/30 07:46:55;;;;;;;7.23;4.60;;;20.70;53.00;;;;;;4957286;28;20198;-91
2021/03/30 07:49:28;;;;;;;6.50;4.30;;;20.70;53.10;;;;;;4952529;28;20293;-90
2021/03/30 07:52:17;;;;;;;6.03;4.50;;;20.80;52.80;;;;;;4970582;28;20221;-89
2021/03/30 07:55:18;;;;;;;5.77;4.30;;;20.80;52.60;;;;;;4972706;28;20205;-89
2021/03/30 07:58:10;;;;;;;9.23;4.20;;;20.90;52.60;;;;;;4971293;28;20210;-91
2021/03/30 08:00:42;;;;;;;7.50;4.37;;;20.90;52.40;;;;;;4936766;28;20266;-90
2021/03/30 08:03:14;;;;;;;5.97;4.60;;;21.00;52.40;;;;;;4952819;28;20202;-87
2021/03/30 08:05:43;;;;;;;7.53;4.07;;;21.00;52.30;;;;;;4974754;28;20190;-92
2021/03/30 08:08:23;;;;;;;6.80;4.23;;;21.10;52.20;;;;;;4970560;28;20236;-86
2021/03/30 08:10:55;;;;;;;5.13;4.60;;;21.20;52.20;;;;;;4958498;28;20816;-87
2021/03/30 08:13:31;;;;;;;6.73;4.57;;;21.20;52.00;;;;;;4956477;28;20198;-87
2021/03/30 08:16:10;;;;;;;4.87;3.93;;;21.20;52.00;;;;;;4966511;28;20276;-85
2021/03/30 08:18:41;;;;;;;8.13;4.30;;;21.30;52.00;;;;;;4955630;28;20244;-89
2021/03/30 08:21:19;;;;;;;8.70;4.50;;;21.30;52.10;;;;;;4957922;28;20202;-87
2021/03/30 08:23:53;;;;;;;7.07;4.70;;;21.40;51.70;;;;;;4924717;29;20241;-91
2021/03/30 08:26:28;;;;;;;7.77;4.80;;;21.40;51.80;;;;;;4970025;28;20210;-91
2021/03/30 08:28:55;;;;;;;10.53;4.93;;;21.50;51.70;;;;;;4949548;28;20260;-89
2021/03/30 08:31:43;;;;;;;8.07;4.60;;;21.50;51.50;;;;;;4948879;28;20177;-90
2021/03/30 08:34:13;;;;;;;11.17;4.67;;;21.50;51.60;;;;;;4948331;28;20237;-84
2021/03/30 08:36:48;;;;;;;10.17;4.67;;;21.60;51.40;;;;;;4950431;28;20244;-86
2021/03/30 08:39:23;;;;;;;5.90;4.60;;;21.60;51.40;;;;;;4967067;28;20253;-85
2021/03/30 08:41:56;;;;;;;8.03;4.40;;;21.60;51.20;;;;;;4955348;28;20216;-85
2021/03/30 08:44:43;;;;;;;8.07;4.53;;;21.70;51.20;;;;;;4952577;28;20203;-84
2021/03/30 08:47:46;;;;;;;6.50;4.10;;;21.70;51.30;;;;;;4954933;28;20217;-91
2021/03/30 08:50:31;;;;;;;6.40;4.67;;;21.80;51.30;;;;;;4967118;28;20228;-88
2021/03/30 08:53:00;;;;;;;7.13;4.63;;;21.80;51.20;;;;;;4968786;28;20681;-88
2021/03/30 08:55:37;;;;;;;7.67;4.23;;;21.90;51.20;;;;;;4948472;28;20194;-89
2021/03/30 08:58:06;;;;;;;5.10;4.60;;;21.90;51.30;;;;;;4952718;28;20213;-87
2021/03/30 09:00:37;;;;;;;5.13;4.43;;;22.00;51.20;;;;;;4950295;28;20249;-85
2021/03/30 09:03:09;;;;;;;8.27;4.97;;;22.00;51.30;;;;;;4955074;28;20259;-83
2021/03/30 09:05:40;;;;;;;7.43;4.63;;;22.00;51.30;;;;;;4950562;28;20260;-84
2021/03/30 09:08:10;;;;;;;8.67;4.40;;;22.00;51.20;;;;;;4953163;28;20234;-83
2021/03/30 09:10:40;;;;;;;7.23;4.67;;;22.00;51.00;;;;;;4954484;28;20213;-91
2021/03/30 09:13:14;;;;;;;11.17;4.60;;;22.10;51.10;;;;;;4949447;28;20474;-90
2021/03/30 09:15:42;;;;;;;6.13;4.67;;;22.10;50.90;;;;;;4969348;28;20236;-87
2021/03/30 09:18:10;;;;;;;7.00;4.30;;;22.10;51.10;;;;;;4964223;28;20213;-86
2021/03/30 09:20:39;;;;;;;6.13;4.70;;;22.20;51.00;;;;;;4953718;28;20220;-85
2021/03/30 09:23:25;;;;;;;5.90;4.17;;;22.20;51.10;;;;;;4946682;28;20202;-78
2021/03/30 09:25:59;;;;;;;8.50;4.97;;;22.20;50.70;;;;;;4948436;28;20584;-78
2021/03/30 09:28:25;;;;;;;7.07;4.87;;;22.10;48.40;;;;;;4948416;28;20320;-77
2021/03/30 09:30:52;;;;;;;6.27;5.57;;;22.00;48.20;;;;;;4946657;28;20206;-77
2021/03/30 09:33:18;;;;;;;11.37;6.23;;;22.00;48.40;;;;;;4949095;28;20202;-77
2021/03/30 09:35:45;;;;;;;7.00;5.53;;;21.90;48.30;;;;;;4949168;28;20225;-76
2021/03/30 09:38:12;;;;;;;7.27;5.90;;;21.80;48.40;;;;;;4948928;28;20201;-76
2021/03/30 09:40:42;;;;;;;8.13;5.93;;;21.80;48.50;;;;;;4948379;28;20213;-77
2021/03/30 09:43:14;;;;;;;7.77;5.17;;;21.80;48.50;;;;;;4947657;28;20224;-79
2021/03/30 09:45:42;;;;;;;8.30;5.90;;;21.70;49.20;;;;;;4952406;28;20264;-85
2021/03/30 09:48:14;;;;;;;9.03;6.50;;;21.80;49.50;;;;;;4951175;28;20225;-81
2021/03/30 09:50:48;;;;;;;10.30;6.07;;;21.90;50.90;;;;;;4971450;28;20208;-85
2021/03/30 09:53:20;;;;;;;9.17;6.33;;;22.00;50.80;;;;;;4956987;28;20202;-89
2021/03/30 09:55:47;;;;;;;6.63;5.87;;;22.10;51.30;;;;;;4952515;28;20210;-86
2021/03/30 09:58:19;;;;;;;8.27;6.60;;;22.20;51.00;;;;;;4954989;28;20198;-85
2021/03/30 10:00:57;;;;;;;9.20;6.07;;;22.30;51.10;;;;;;4953493;28;20693;-87
2021/03/30 10:03:24;;;;;;;8.57;6.57;;;22.30;51.10;;;;;;4948376;28;20288;-85
2021/03/30 10:05:51;;;;;;;8.10;6.13;;;22.40;51.10;;;;;;4957153;28;20232;-88
2021/03/30 10:08:17;;;;;;;9.80;5.87;;;22.40;51.40;;;;;;4971001;28;20244;-88
2021/03/30 10:10:59;;;;;;;8.60;6.20;;;22.50;51.00;;;;;;4969923;28;20277;-87
2021/03/30 10:13:26;;;;;;;10.60;6.43;;;22.60;51.40;;;;;;4956634;28;20206;-86
2021/03/30 10:15:55;;;;;;;8.00;5.87;;;22.60;51.20;;;;;;4955407;28;20209;-86
2021/03/30 10:18:23;;;;;;;9.13;5.80;;;22.60;51.20;;;;;;4952835;28;20217;-85
2021/03/30 10:20:52;;;;;;;8.13;6.63;;;22.70;50.90;;;;;;4969899;28;20621;-85
2021/03/30 10:23:25;;;;;;;10.80;5.97;;;22.70;51.50;;;;;;4950707;28;20204;-88
2021/03/30 10:25:53;;;;;;;12.77;6.10;;;22.80;51.10;;;;;;4953340;28;20217;-89
2021/03/30 10:28:32;;;;;;;8.37;5.27;;;22.80;51.50;;;;;;4953793;28;20206;-92
2021/03/30 10:31:21;;;;;;;7.90;5.57;;;22.90;51.10;;;;;;4940479;29;20209;-88
2021/03/30 10:33:52;;;;;;;12.73;6.20;;;22.90;51.40;;;;;;4950617;28;20260;-86
2021/03/30 10:36:19;;;;;;;7.30;5.93;;;22.90;51.20;;;;;;4953845;28;20705;-91
2021/03/30 10:39:09;;;;;;;7.00;5.47;;;23.00;51.30;;;;;;4954363;28;20216;-87
2021/03/30 10:41:41;;;;;;;7.70;6.30;;;23.00;51.50;;;;;;4952026;28;20221;-87
2021/03/30 10:44:10;;;;;;;8.60;5.80;;;23.10;51.10;;;;;;4955937;28;20217;-85
2021/03/30 10:46:50;;;;;;;7.87;5.80;;;23.10;51.20;;;;;;4964819;28;20225;-88
2021/03/30 10:49:29;;;;;;;9.47;5.63;;;23.10;50.90;;;;;;4956799;28;20194;-91
2021/03/30 10:51:56;;;;;;;13.20;6.00;;;23.20;50.90;;;;;;4958161;28;20268;-83
2021/03/30 10:54:24;;;;;;;8.93;6.47;;;23.00;48.50;;;;;;4954832;28;20225;-83
2021/03/30 10:56:52;;;;;;;10.37;6.20;;;22.90;48.40;;;;;;4955134;28;20305;-86
2021/03/30 10:59:21;;;;;;;9.17;6.57;;;22.80;48.40;;;;;;4969119;28;20228;-84
2021/03/30 11:01:48;;;;;;;9.87;7.27;;;22.80;48.70;;;;;;4956799;28;20205;-82
2021/03/30 11:04:15;;;;;;;9.97;7.83;;;22.60;48.50;;;;;;4957436;28;20658;-83
2021/03/30 11:06:43;;;;;;;9.23;7.17;;;22.60;48.40;;;;;;4957060;28;20209;-84
2021/03/30 11:09:09;;;;;;;13.00;8.57;;;22.60;48.50;;;;;;4968840;28;20240;-81
2021/03/30 11:11:36;;;;;;;23.57;9.47;;;22.60;48.30;;;;;;4955910;28;20202;-85
2021/03/30 11:14:06;;;;;;;15.63;8.07;;;22.60;49.10;;;;;;4948951;28;20205;-85
2021/03/30 11:16:32;;;;;;;12.17;8.60;;;22.60;49.40;;;;;;4953579;28;20232;-81
2021/03/30 11:18:59;;;;;;;9.70;7.87;;;22.60;49.10;;;;;;4951988;28;20210;-86
2021/03/30 11:21:25;;;;;;;13.87;8.07;;;22.60;49.10;;;;;;4968900;28;20579;-85
2021/03/30 11:24:00;;;;;;;15.50;7.40;;;22.70;49.40;;;;;;4953846;28;20206;-86
2021/03/30 11:26:26;;;;;;;10.20;7.53;;;22.70;49.40;;;;;;4970796;28;20582;-84
2021/03/30 11:28:54;;;;;;;8.83;6.57;;;22.70;49.40;;;;;;4952836;28;20213;-84
2021/03/30 11:34:25;;;;;;;9.00;6.27;;;22.80;49.20;;;;;;4952123;28;20217;-84
2021/03/30 11:39:40;;;;;;;9.10;6.53;;;22.70;49.10;;;;;;4951947;28;20208;-85
2021/03/30 11:42:07;;;;;;;9.83;6.87;;;22.70;49.00;;;;;;4968390;28;20217;-86
2021/03/30 11:44:33;;;;;;;10.17;7.07;;;22.70;48.80;;;;;;4953190;28;20226;-86
2021/03/30 11:47:00;;;;;;;8.10;7.03;;;22.70;48.80;;;;;;4955728;28;20205;-87
2021/03/30 11:49:28;;;;;;;7.93;6.77;;;22.70;48.80;;;;;;4955401;28;20220;-86
2021/03/30 11:51:57;;;;;;;9.27;6.87;;;22.70;48.90;;;;;;4969250;28;20221;-88
2021/03/30 11:54:24;;;;;;;8.20;6.63;;;22.70;48.90;;;;;;4955924;29;20278;-89
2021/03/30 11:56:50;;;;;;;7.33;6.33;;;22.90;49.30;;;;;;4973702;28;20224;-89
2021/03/30 11:59:17;;;;;;;8.13;6.07;;;23.00;50.00;;;;;;4965570;28;20649;-87
2021/03/30 12:01:44;;;;;;;7.20;5.90;;;23.00;49.50;;;;;;4966403;28;20209;-83
2021/03/30 12:04:10;;;;;;;7.80;6.37;;;23.10;49.40;;;;;;4950069;28;20212;-82
2021/03/30 12:06:36;;;;;;;9.40;6.07;;;23.10;49.10;;;;;;4967121;28;20201;-89
2021/03/30 12:09:03;;;;;;;7.73;5.30;;;23.00;49.00;;;;;;4948602;28;20225;-88
2021/03/30 12:11:31;;;;;;;11.20;5.40;;;23.10;49.40;;;;;;4951417;28;20214;-86
2021/03/30 12:13:59;;;;;;;6.60;5.67;;;23.10;49.70;;;;;;4947608;28;20213;-86
2021/03/30 12:16:26;;;;;;;7.27;5.50;;;23.20;49.60;;;;;;4951626;28;20252;-84
2021/03/30 12:18:55;;;;;;;9.90;5.27;;;23.30;49.50;;;;;;4943985;28;20194;-87
2021/03/30 12:21:28;;;;;;;7.87;5.23;;;23.40;49.60;;;;;;4945099;28;20870;-88
2021/03/30 12:23:54;;;;;;;7.10;4.80;;;23.40;49.80;;;;;;4964760;28;20697;-81
2021/03/30 12:26:20;;;;;;;9.80;5.03;;;23.50;49.50;;;;;;4948262;28;20664;-86
2021/03/30 12:28:49;;;;;;;5.63;4.10;;;23.50;50.20;;;;;;4945553;28;20918;-89
2021/03/30 12:31:25;;;;;;;9.73;4.43;;;23.60;49.80;;;;;;4948135;28;20264;-81
2021/03/30 12:33:52;;;;;;;6.10;4.40;;;23.70;50.20;;;;;;4948232;28;20217;-87
2021/03/30 12:36:18;;;;;;;5.93;4.67;;;23.70;50.10;;;;;;4962265;28;20244;-84
2021/03/30 12:38:47;;;;;;;9.60;4.73;;;23.70;50.20;;;;;;4950900;28;20659;-87
2021/03/30 12:41:13;;;;;;;6.10;4.90;;;23.80;50.60;;;;;;4968139;28;20210;-94
2021/03/30 12:43:43;;;;;;;4.87;4.20;;;23.90;50.50;;;;;;4951634;28;20202;-89
2021/03/30 12:46:15;;;;;;;6.67;4.10;;;23.90;50.30;;;;;;4950764;28;20210;-92
2021/03/30 12:48:41;;;;;;;7.77;4.43;;;23.90;50.40;;;;;;4949001;28;20205;-86
2021/03/30 12:51:09;;;;;;;11.87;4.37;;;24.00;50.20;;;;;;4946056;28;20825;-88
2021/03/30 12:53:38;;;;;;;7.43;4.40;;;24.10;50.10;;;;;;4947827;28;20200;-88
2021/03/30 12:56:08;;;;;;;5.73;4.17;;;24.10;50.10;;;;;;4949051;28;20209;-87
2021/03/30 12:58:34;;;;;;;10.40;4.63;;;24.20;50.50;;;;;;4967060;28;20275;-92
2021/03/30 13:01:00;;;;;;;8.73;3.80;;;24.20;51.20;;;;;;4952191;28;20276;-88
2021/03/30 13:03:47;;;;;;;4.17;3.77;;;24.20;50.70;;;;;;4950102;28;20289;-88
2021/03/30 13:06:14;;;;;;;4.63;3.90;;;24.30;50.20;;;;;;4945324;28;20280;-86
2021/03/30 13:08:41;;;;;;;9.37;4.00;;;24.40;50.00;;;;;;4945999;28;20257;-86
2021/03/30 13:11:07;;;;;;;4.80;3.60;;;24.40;49.70;;;;;;4952838;28;20217;-86